sensor_id;sensor_type;location;lat;lon;timestamp;temperature;humidity
18581;DHT22;9420;50.876;7.012;2023-05-24T00:00:35;11.20;99.90
18581;DHT22;9420;50.876;7.012;2023-05-24T00:03:02;11.20;99.90
18581;DHT22;9420;50.876;7.012;2023-05-24T00:05:31;11.10;99.90
18581;DHT22;9420;50.876;7.012;2023-05-24T00:07:59;11.10;99.90
18581;DHT22;9420;50.876;7.012;2023-05-24T00:10:26;11.00;99.90
18581;DHT22;9420;50.876;7.012;2023-05-24T00:12:53;11.00;99.90
18581;DHT22;9420;50.876;7.012;2023-05-24T00:15:20;11.10;99.90
18581;DHT22;9420;50.876;7.012;2023-05-24T00:17:47;11.00;99.90
18581;DHT22;9420;50.876;7.012;2023-05-24T00:20:14;10.90;99.90
18581;DHT22;9420;50.876;7.012;2023-05-24T00:22:41;11.00;99.90
18581;DHT22;9420;50.876;7.012;2023-05-24T00:25:10;10.90;99.90
18581;DHT22;9420;50.876;7.012;2023-05-24T00:27:37;10.90;99.90
18581;DHT22;9420;50.876;7.012;2023-05-24T00:30:05;10.90;99.90
18581;DHT22;9420;50.876;7.012;2023-05-24T00:32:33;10.70;99.90
18581;DHT22;9420;50.876;7.012;2023-05-24T00:35:00;10.80;99.90
18581;DHT22;9420;50.876;7.012;2023-05-24T00:37:27;10.60;99.90
18581;DHT22;9420;50.876;7.012;2023-05-24T00:39:55;10.50;99.90
18581;DHT22;9420;50.876;7.012;2023-05-24T00:42:23;10.50;99.90
18581;DHT22;9420;50.876;7.012;2023-05-24T00:44:50;10.50;99.90
18581;DHT22;9420;50.876;7.012;2023-05-24T00:47:17;10.50;99.90
18581;DHT22;9420;50.876;7.012;2023-05-24T00:49:45;10.40;99.90
18581;DHT22;9420;50.876;7.012;2023-05-24T00:52:12;10.20;99.90
18581;DHT22;9420;50.876;7.012;2023-05-24T00:54:39;10.10;99.90
18581;DHT22;9420;50.876;7.012;2023-05-24T00:57:07;10.20;99.90
18581;DHT22;9420;50.876;7.012;2023-05-24T00:59:35;10.00;1.00
18581;DHT22;9420;50.876;7.012;2023-05-24T01:02:03;10.00;1.00
18581;DHT22;9420;50.876;7.012;2023-05-24T01:04:30;10.00;1.00
18581;DHT22;9420;50.876;7.012;2023-05-24T01:07:08;10.10;1.00
18581;DHT22;9420;50.876;7.012;2023-05-24T01:09:54;10.00;1.00
18581;DHT22;9420;50.876;7.012;2023-05-24T01:12:35;10.00;1.00
18581;DHT22;9420;50.876;7.012;2023-05-24T01:15:35;9.90;1.00
18581;DHT22;9420;50.876;7.012;2023-05-24T01:18:13;9.80;1.00
18581;DHT22;9420;50.876;7.012;2023-05-24T01:20:49;10.00;1.00
18581;DHT22;9420;50.876;7.012;2023-05-24T01:23:31;9.90;1.00
18581;DHT22;9420;50.876;7.012;2023-05-24T01:26:18;9.90;1.00
18581;DHT22;9420;50.876;7.012;2023-05-24T01:28:51;9.90;1.00
18581;DHT22;9420;50.876;7.012;2023-05-24T01:31:20;9.80;1.00
18581;DHT22;9420;50.876;7.012;2023-05-24T01:33:48;9.70;1.00
18581;DHT22;9420;50.876;7.012;2023-05-24T01:36:15;9.70;1.00
18581;DHT22;9420;50.876;7.012;2023-05-24T01:38:43;9.60;1.00
18581;DHT22;9420;50.876;7.012;2023-05-24T01:41:17;9.60;1.00
18581;DHT22;9420;50.876;7.012;2023-05-24T01:43:59;9.70;1.00
18581;DHT22;9420;50.876;7.012;2023-05-24T01:46:35;9.60;1.00
18581;DHT22;9420;50.876;7.012;2023-05-24T01:49:10;9.50;1.00
18581;DHT22;9420;50.876;7.012;2023-05-24T01:51:48;9.50;1.00
18581;DHT22;9420;50.876;7.012;2023-05-24T01:54:21;9.50;1.00
18581;DHT22;9420;50.876;7.012;2023-05-24T01:56:52;9.50;1.00
18581;DHT22;9420;50.876;7.012;2023-05-24T01:59:24;9.50;1.00
18581;DHT22;9420;50.876;7.012;2023-05-24T02:01:53;9.40;1.00
18581;DHT22;9420;50.876;7.012;2023-05-24T02:04:21;9.30;1.00
18581;DHT22;9420;50.876;7.012;2023-05-24T02:06:49;9.20;1.00
18581;DHT22;9420;50.876;7.012;2023-05-24T02:09:16;9.20;25.10
18581;DHT22;9420;50.876;7.012;2023-05-24T02:11:43;9.10;99.90
18581;DHT22;9420;50.876;7.012;2023-05-24T02:14:10;9.10;99.90
18581;DHT22;9420;50.876;7.012;2023-05-24T02:16:39;8.90;99.90
18581;DHT22;9420;50.876;7.012;2023-05-24T02:19:07;9.00;99.90
18581;DHT22;9420;50.876;7.012;2023-05-24T02:21:34;8.90;99.90
18581;DHT22;9420;50.876;7.012;2023-05-24T02:24:01;8.70;99.90
18581;DHT22;9420;50.876;7.012;2023-05-24T02:26:28;8.60;1.00
18581;DHT22;9420;50.876;7.012;2023-05-24T02:28:55;8.50;1.00
18581;DHT22;9420;50.876;7.012;2023-05-24T02:31:22;8.30;1.00
18581;DHT22;9420;50.876;7.012;2023-05-24T02:33:51;8.30;1.00
18581;DHT22;9420;50.876;7.012;2023-05-24T02:36:18;8.30;1.00
18581;DHT22;9420;50.876;7.012;2023-05-24T02:38:48;8.10;1.00
18581;DHT22;9420;50.876;7.012;2023-05-24T02:41:15;8.20;1.00
18581;DHT22;9420;50.876;7.012;2023-05-24T02:43:42;8.20;1.00
18581;DHT22;9420;50.876;7.012;2023-05-24T02:46:10;8.10;1.00
18581;DHT22;9420;50.876;7.012;2023-05-24T02:48:37;8.00;22.30
18581;DHT22;9420;50.876;7.012;2023-05-24T02:51:06;8.10;1.00
18581;DHT22;9420;50.876;7.012;2023-05-24T02:53:33;8.10;1.00
18581;DHT22;9420;50.876;7.012;2023-05-24T02:56:00;8.10;1.00
18581;DHT22;9420;50.876;7.012;2023-05-24T02:58:27;7.90;1.00
18581;DHT22;9420;50.876;7.012;2023-05-24T03:00:54;7.80;20.80
18581;DHT22;9420;50.876;7.012;2023-05-24T03:03:21;7.80;60.00
18581;DHT22;9420;50.876;7.012;2023-05-24T03:05:48;7.70;99.90
18581;DHT22;9420;50.876;7.012;2023-05-24T03:08:17;7.70;99.90
18581;DHT22;9420;50.876;7.012;2023-05-24T03:10:44;7.70;99.90
18581;DHT22;9420;50.876;7.012;2023-05-24T03:13:11;7.60;99.90
18581;DHT22;9420;50.876;7.012;2023-05-24T03:15:38;7.80;99.90
18581;DHT22;9420;50.876;7.012;2023-05-24T03:18:05;7.70;99.90
18581;DHT22;9420;50.876;7.012;2023-05-24T03:20:32;7.60;99.90
18581;DHT22;9420;50.876;7.012;2023-05-24T03:22:59;7.70;99.90
18581;DHT22;9420;50.876;7.012;2023-05-24T03:25:27;7.70;99.90
18581;DHT22;9420;50.876;7.012;2023-05-24T03:27:54;7.90;99.90
18581;DHT22;9420;50.876;7.012;2023-05-24T03:30:21;7.70;99.90
18581;DHT22;9420;50.876;7.012;2023-05-24T03:32:48;7.50;1.00
18581;DHT22;9420;50.876;7.012;2023-05-24T03:35:15;7.50;1.00
18581;DHT22;9420;50.876;7.012;2023-05-24T03:37:43;7.50;1.00
18581;DHT22;9420;50.876;7.012;2023-05-24T03:40:10;7.40;1.00
18581;DHT22;9420;50.876;7.012;2023-05-24T03:42:39;7.50;1.00
18581;DHT22;9420;50.876;7.012;2023-05-24T03:45:07;7.50;1.00
18581;DHT22;9420;50.876;7.012;2023-05-24T03:47:34;7.40;1.00
18581;DHT22;9420;50.876;7.012;2023-05-24T03:50:02;7.40;1.00
18581;DHT22;9420;50.876;7.012;2023-05-24T03:52:29;7.40;1.00
18581;DHT22;9420;50.876;7.012;2023-05-24T03:54:56;7.40;1.00
18581;DHT22;9420;50.876;7.012;2023-05-24T03:57:23;7.50;1.00
18581;DHT22;9420;50.876;7.012;2023-05-24T03:59:51;7.40;1.00
18581;DHT22;9420;50.876;7.012;2023-05-24T04:02:18;7.30;1.00
18581;DHT22;9420;50.876;7.012;2023-05-24T04:04:46;7.40;1.00
18581;DHT22;9420;50.876;7.012;2023-05-24T04:07:13;7.40;1.00
18581;DHT22;9420;50.876;7.012;2023-05-24T04:09:41;7.40;1.00
18581;DHT22;9420;50.876;7.012;2023-05-24T04:12:09;7.40;1.00
18581;DHT22;9420;50.876;7.012;2023-05-24T04:14:36;7.40;1.00
18581;DHT22;9420;50.876;7.012;2023-05-24T04:17:04;7.40;52.50
18581;DHT22;9420;50.876;7.012;2023-05-24T04:19:32;7.40;7.30
18581;DHT22;9420;50.876;7.012;2023-05-24T04:21:59;7.40;7.80
18581;DHT22;9420;50.876;7.012;2023-05-24T04:24:26;7.50;45.80
18581;DHT22;9420;50.876;7.012;2023-05-24T04:26:53;7.60;1.00
18581;DHT22;9420;50.876;7.012;2023-05-24T04:29:20;7.60;14.40
18581;DHT22;9420;50.876;7.012;2023-05-24T04:31:50;7.60;99.90
18581;DHT22;9420;50.876;7.012;2023-05-24T04:34:18;7.80;33.10
18581;DHT22;9420;50.876;7.012;2023-05-24T04:36:46;7.90;1.00
18581;DHT22;9420;50.876;7.012;2023-05-24T04:39:16;7.80;1.00
18581;DHT22;9420;50.876;7.012;2023-05-24T04:41:44;7.70;99.90
18581;DHT22;9420;50.876;7.012;2023-05-24T04:44:11;7.70;99.90
18581;DHT22;9420;50.876;7.012;2023-05-24T04:46:38;7.80;99.90
18581;DHT22;9420;50.876;7.012;2023-05-24T04:49:05;8.00;99.90
18581;DHT22;9420;50.876;7.012;2023-05-24T04:51:36;8.20;67.60
18581;DHT22;9420;50.876;7.012;2023-05-24T04:54:04;8.20;99.90
18581;DHT22;9420;50.876;7.012;2023-05-24T04:56:33;8.10;99.90
18581;DHT22;9420;50.876;7.012;2023-05-24T04:59:00;8.20;1.00
18581;DHT22;9420;50.876;7.012;2023-05-24T05:01:27;8.30;83.20
18581;DHT22;9420;50.876;7.012;2023-05-24T05:03:55;8.40;98.20
18581;DHT22;9420;50.876;7.012;2023-05-24T05:06:22;8.50;10.40
18581;DHT22;9420;50.876;7.012;2023-05-24T05:08:50;8.60;1.00
18581;DHT22;9420;50.876;7.012;2023-05-24T05:11:18;8.70;1.00
18581;DHT22;9420;50.876;7.012;2023-05-24T05:13:45;8.80;1.00
18581;DHT22;9420;50.876;7.012;2023-05-24T05:16:12;8.90;1.00
18581;DHT22;9420;50.876;7.012;2023-05-24T05:18:40;9.10;1.00
18581;DHT22;9420;50.876;7.012;2023-05-24T05:21:07;9.30;99.90
18581;DHT22;9420;50.876;7.012;2023-05-24T05:23:34;9.40;99.90
18581;DHT22;9420;50.876;7.012;2023-05-24T05:26:02;9.60;99.90
18581;DHT22;9420;50.876;7.012;2023-05-24T05:28:31;9.60;99.90
18581;DHT22;9420;50.876;7.012;2023-05-24T05:30:58;9.60;99.90
18581;DHT22;9420;50.876;7.012;2023-05-24T05:33:25;9.80;99.90
18581;DHT22;9420;50.876;7.012;2023-05-24T05:35:52;9.60;99.90
18581;DHT22;9420;50.876;7.012;2023-05-24T05:38:19;9.70;99.90
18581;DHT22;9420;50.876;7.012;2023-05-24T05:40:46;9.80;99.90
18581;DHT22;9420;50.876;7.012;2023-05-24T05:43:15;9.90;25.00
18581;DHT22;9420;50.876;7.012;2023-05-24T05:45:42;10.00;25.50
18581;DHT22;9420;50.876;7.012;2023-05-24T05:48:10;10.00;1.00
18581;DHT22;9420;50.876;7.012;2023-05-24T05:50:37;9.90;62.70
18581;DHT22;9420;50.876;7.012;2023-05-24T05:53:04;10.00;3.60
18581;DHT22;9420;50.876;7.012;2023-05-24T05:55:31;10.20;1.00
18581;DHT22;9420;50.876;7.012;2023-05-24T05:57:58;10.10;6.00
18581;DHT22;9420;50.876;7.012;2023-05-24T06:00:26;10.30;1.20
18581;DHT22;9420;50.876;7.012;2023-05-24T06:02:53;10.50;1.00
18581;DHT22;9420;50.876;7.012;2023-05-24T06:05:21;10.50;1.00
18581;DHT22;9420;50.876;7.012;2023-05-24T06:07:48;10.50;1.00
18581;DHT22;9420;50.876;7.012;2023-05-24T06:10:15;10.50;1.00
18581;DHT22;9420;50.876;7.012;2023-05-24T06:12:42;10.70;1.00
18581;DHT22;9420;50.876;7.012;2023-05-24T06:15:10;10.50;1.00
18581;DHT22;9420;50.876;7.012;2023-05-24T06:17:39;10.50;1.00
18581;DHT22;9420;50.876;7.012;2023-05-24T06:20:09;10.80;1.00
18581;DHT22;9420;50.876;7.012;2023-05-24T06:22:40;10.80;1.00
18581;DHT22;9420;50.876;7.012;2023-05-24T06:25:07;10.90;1.00
18581;DHT22;9420;50.876;7.012;2023-05-24T06:27:35;11.10;1.00
18581;DHT22;9420;50.876;7.012;2023-05-24T06:30:02;11.10;1.00
18581;DHT22;9420;50.876;7.012;2023-05-24T06:32:30;11.10;1.00
18581;DHT22;9420;50.876;7.012;2023-05-24T06:34:59;11.10;1.00
18581;DHT22;9420;50.876;7.012;2023-05-24T06:37:26;11.20;1.00
18581;DHT22;9420;50.876;7.012;2023-05-24T06:39:55;11.40;1.00
18581;DHT22;9420;50.876;7.012;2023-05-24T06:42:22;11.30;1.00
18581;DHT22;9420;50.876;7.012;2023-05-24T06:44:49;11.20;99.90
18581;DHT22;9420;50.876;7.012;2023-05-24T06:47:16;11.50;99.90
18581;DHT22;9420;50.876;7.012;2023-05-24T06:49:43;11.70;99.90
18581;DHT22;9420;50.876;7.012;2023-05-24T06:52:11;11.80;99.90
18581;DHT22;9420;50.876;7.012;2023-05-24T06:54:38;12.00;99.90
18581;DHT22;9420;50.876;7.012;2023-05-24T06:57:05;12.00;99.90
18581;DHT22;9420;50.876;7.012;2023-05-24T06:59:33;12.20;99.90
18581;DHT22;9420;50.876;7.012;2023-05-24T07:02:00;12.30;99.90
18581;DHT22;9420;50.876;7.012;2023-05-24T07:04:27;12.40;99.90
18581;DHT22;9420;50.876;7.012;2023-05-24T07:06:54;12.60;99.90
18581;DHT22;9420;50.876;7.012;2023-05-24T07:09:23;12.70;1.00
18581;DHT22;9420;50.876;7.012;2023-05-24T07:11:50;12.90;1.00
18581;DHT22;9420;50.876;7.012;2023-05-24T07:14:17;12.70;1.00
18581;DHT22;9420;50.876;7.012;2023-05-24T07:16:44;12.70;1.00
18581;DHT22;9420;50.876;7.012;2023-05-24T07:19:13;12.70;1.00
18581;DHT22;9420;50.876;7.012;2023-05-24T07:21:40;12.80;1.00
18581;DHT22;9420;50.876;7.012;2023-05-24T07:24:08;12.80;1.00
18581;DHT22;9420;50.876;7.012;2023-05-24T07:26:36;12.80;1.00
18581;DHT22;9420;50.876;7.012;2023-05-24T07:29:03;12.70;1.00
18581;DHT22;9420;50.876;7.012;2023-05-24T07:31:30;12.10;1.00
18581;DHT22;9420;50.876;7.012;2023-05-24T07:33:59;12.10;1.00
18581;DHT22;9420;50.876;7.012;2023-05-24T07:36:26;12.20;1.00
18581;DHT22;9420;50.876;7.012;2023-05-24T07:38:56;12.00;1.00
18581;DHT22;9420;50.876;7.012;2023-05-24T07:41:25;12.10;1.00
18581;DHT22;9420;50.876;7.012;2023-05-24T07:43:54;12.40;1.00
18581;DHT22;9420;50.876;7.012;2023-05-24T07:46:21;12.40;1.00
18581;DHT22;9420;50.876;7.012;2023-05-24T07:48:48;12.30;1.00
18581;DHT22;9420;50.876;7.012;2023-05-24T07:51:16;12.80;1.00
18581;DHT22;9420;50.876;7.012;2023-05-24T07:53:43;13.00;1.00
18581;DHT22;9420;50.876;7.012;2023-05-24T07:56:10;12.90;1.00
18581;DHT22;9420;50.876;7.012;2023-05-24T07:58:37;12.90;1.00
18581;DHT22;9420;50.876;7.012;2023-05-24T08:01:08;13.50;1.00
18581;DHT22;9420;50.876;7.012;2023-05-24T08:03:35;13.70;1.00
18581;DHT22;9420;50.876;7.012;2023-05-24T08:06:02;13.70;1.00
18581;DHT22;9420;50.876;7.012;2023-05-24T08:08:29;14.00;1.00
18581;DHT22;9420;50.876;7.012;2023-05-24T08:10:56;14.00;1.00
18581;DHT22;9420;50.876;7.012;2023-05-24T08:13:23;14.00;1.00
18581;DHT22;9420;50.876;7.012;2023-05-24T08:15:50;14.10;1.00
18581;DHT22;9420;50.876;7.012;2023-05-24T08:18:19;14.30;1.00
18581;DHT22;9420;50.876;7.012;2023-05-24T08:20:46;14.20;1.00
18581;DHT22;9420;50.876;7.012;2023-05-24T08:23:13;14.00;1.00
18581;DHT22;9420;50.876;7.012;2023-05-24T08:25:40;13.60;1.00
18581;DHT22;9420;50.876;7.012;2023-05-24T08:28:07;13.30;1.00
18581;DHT22;9420;50.876;7.012;2023-05-24T08:30:35;13.40;1.00
18581;DHT22;9420;50.876;7.012;2023-05-24T08:33:02;13.50;1.00
18581;DHT22;9420;50.876;7.012;2023-05-24T08:35:31;13.50;1.00
18581;DHT22;9420;50.876;7.012;2023-05-24T08:37:58;13.70;1.00
18581;DHT22;9420;50.876;7.012;2023-05-24T08:40:25;14.00;1.00
18581;DHT22;9420;50.876;7.012;2023-05-24T08:42:52;14.60;1.00
18581;DHT22;9420;50.876;7.012;2023-05-24T08:45:21;15.10;1.00
18581;DHT22;9420;50.876;7.012;2023-05-24T08:47:49;15.60;1.00
18581;DHT22;9420;50.876;7.012;2023-05-24T08:50:17;15.90;1.00
18581;DHT22;9420;50.876;7.012;2023-05-24T08:52:48;15.70;1.00
18581;DHT22;9420;50.876;7.012;2023-05-24T08:55:16;15.90;1.00
18581;DHT22;9420;50.876;7.012;2023-05-24T08:57:44;15.60;99.90
18581;DHT22;9420;50.876;7.012;2023-05-24T09:00:13;15.40;99.90
18581;DHT22;9420;50.876;7.012;2023-05-24T09:02:41;15.40;99.90
18581;DHT22;9420;50.876;7.012;2023-05-24T09:05:11;15.50;99.90
18581;DHT22;9420;50.876;7.012;2023-05-24T09:07:42;15.40;99.90
18581;DHT22;9420;50.876;7.012;2023-05-24T09:10:12;15.50;99.90
18581;DHT22;9420;50.876;7.012;2023-05-24T09:12:43;15.30;99.90
18581;DHT22;9420;50.876;7.012;2023-05-24T09:15:13;15.20;99.90
18581;DHT22;9420;50.876;7.012;2023-05-24T09:17:40;15.10;99.90
18581;DHT22;9420;50.876;7.012;2023-05-24T09:20:08;14.90;99.90
18581;DHT22;9420;50.876;7.012;2023-05-24T09:22:36;15.10;99.90
18581;DHT22;9420;50.876;7.012;2023-05-24T09:25:07;15.10;99.90
18581;DHT22;9420;50.876;7.012;2023-05-24T09:27:37;15.30;99.90
18581;DHT22;9420;50.876;7.012;2023-05-24T09:30:09;15.70;99.90
18581;DHT22;9420;50.876;7.012;2023-05-24T09:32:37;15.60;99.90
18581;DHT22;9420;50.876;7.012;2023-05-24T09:35:07;15.20;99.90
18581;DHT22;9420;50.876;7.012;2023-05-24T09:37:35;15.00;99.90
18581;DHT22;9420;50.876;7.012;2023-05-24T09:40:04;14.90;99.90
18581;DHT22;9420;50.876;7.012;2023-05-24T09:42:33;15.10;99.90
18581;DHT22;9420;50.876;7.012;2023-05-24T09:45:03;14.90;99.90
18581;DHT22;9420;50.876;7.012;2023-05-24T09:47:34;14.80;99.90
18581;DHT22;9420;50.876;7.012;2023-05-24T09:50:04;14.80;99.90
18581;DHT22;9420;50.876;7.012;2023-05-24T09:52:37;14.60;99.90
18581;DHT22;9420;50.876;7.012;2023-05-24T09:55:10;14.30;99.90
18581;DHT22;9420;50.876;7.012;2023-05-24T09:57:38;14.60;99.90
18581;DHT22;9420;50.876;7.012;2023-05-24T10:00:08;15.50;99.90
18581;DHT22;9420;50.876;7.012;2023-05-24T10:02:42;15.30;99.90
18581;DHT22;9420;50.876;7.012;2023-05-24T10:05:09;15.40;99.90
18581;DHT22;9420;50.876;7.012;2023-05-24T10:07:37;15.40;99.90
18581;DHT22;9420;50.876;7.012;2023-05-24T10:10:07;15.30;99.90
18581;DHT22;9420;50.876;7.012;2023-05-24T10:12:36;15.10;99.90
18581;DHT22;9420;50.876;7.012;2023-05-24T10:15:10;15.10;99.90
18581;DHT22;9420;50.876;7.012;2023-05-24T10:17:37;15.00;99.90
18581;DHT22;9420;50.876;7.012;2023-05-24T10:20:05;15.60;99.90
18581;DHT22;9420;50.876;7.012;2023-05-24T10:22:40;16.20;99.90
18581;DHT22;9420;50.876;7.012;2023-05-24T10:25:13;15.50;99.90
18581;DHT22;9420;50.876;7.012;2023-05-24T10:27:44;16.00;99.90
18581;DHT22;9420;50.876;7.012;2023-05-24T10:30:18;15.60;99.90
18581;DHT22;9420;50.876;7.012;2023-05-24T10:32:53;15.50;99.90
18581;DHT22;9420;50.876;7.012;2023-05-24T10:35:22;15.50;99.90
18581;DHT22;9420;50.876;7.012;2023-05-24T10:37:52;15.70;99.90
18581;DHT22;9420;50.876;7.012;2023-05-24T10:40:21;16.00;99.90
18581;DHT22;9420;50.876;7.012;2023-05-24T10:42:51;15.70;99.90
18581;DHT22;9420;50.876;7.012;2023-05-24T10:45:38;15.30;99.90
18581;DHT22;9420;50.876;7.012;2023-05-24T10:48:34;15.20;99.90
18581;DHT22;9420;50.876;7.012;2023-05-24T10:51:30;16.40;99.90
18581;DHT22;9420;50.876;7.012;2023-05-24T10:54:13;16.10;99.90
18581;DHT22;9420;50.876;7.012;2023-05-24T10:56:43;16.30;99.90
18581;DHT22;9420;50.876;7.012;2023-05-24T10:59:22;15.30;99.90
18581;DHT22;9420;50.876;7.012;2023-05-24T11:01:56;15.20;99.90
18581;DHT22;9420;50.876;7.012;2023-05-24T11:04:25;15.40;99.90
18581;DHT22;9420;50.876;7.012;2023-05-24T11:06:59;15.20;99.90
18581;DHT22;9420;50.876;7.012;2023-05-24T11:09:27;15.30;99.90
18581;DHT22;9420;50.876;7.012;2023-05-24T11:11:56;15.40;99.90
18581;DHT22;9420;50.876;7.012;2023-05-24T11:14:29;15.50;99.90
18581;DHT22;9420;50.876;7.012;2023-05-24T11:16:58;15.40;99.90
18581;DHT22;9420;50.876;7.012;2023-05-24T11:19:31;15.30;99.90
18581;DHT22;9420;50.876;7.012;2023-05-24T11:22:03;15.30;99.90
18581;DHT22;9420;50.876;7.012;2023-05-24T11:24:32;15.30;99.90
18581;DHT22;9420;50.876;7.012;2023-05-24T11:27:00;15.80;99.90
18581;DHT22;9420;50.876;7.012;2023-05-24T11:29:28;15.80;99.90
18581;DHT22;9420;50.876;7.012;2023-05-24T11:31:56;16.20;99.90
18581;DHT22;9420;50.876;7.012;2023-05-24T11:34:29;16.50;99.90
18581;DHT22;9420;50.876;7.012;2023-05-24T11:36:57;16.30;99.90
18581;DHT22;9420;50.876;7.012;2023-05-24T11:39:30;16.50;99.90
18581;DHT22;9420;50.876;7.012;2023-05-24T11:41:58;16.50;99.90
18581;DHT22;9420;50.876;7.012;2023-05-24T11:44:28;16.90;99.90
18581;DHT22;9420;50.876;7.012;2023-05-24T11:46:59;16.90;99.90
18581;DHT22;9420;50.876;7.012;2023-05-24T11:49:26;16.30;99.90
18581;DHT22;9420;50.876;7.012;2023-05-24T11:51:54;16.00;99.90
18581;DHT22;9420;50.876;7.012;2023-05-24T11:54:22;15.70;99.90
18581;DHT22;9420;50.876;7.012;2023-05-24T11:56:51;15.90;99.90
18581;DHT22;9420;50.876;7.012;2023-05-24T11:59:22;15.90;99.90
18581;DHT22;9420;50.876;7.012;2023-05-24T12:01:56;15.40;99.90
18581;DHT22;9420;50.876;7.012;2023-05-24T12:04:27;15.50;99.90
18581;DHT22;9420;50.876;7.012;2023-05-24T12:06:54;15.40;99.90
18581;DHT22;9420;50.876;7.012;2023-05-24T12:09:22;15.30;99.90
18581;DHT22;9420;50.876;7.012;2023-05-24T12:11:50;15.10;99.90
18581;DHT22;9420;50.876;7.012;2023-05-24T12:14:19;14.90;99.90
18581;DHT22;9420;50.876;7.012;2023-05-24T12:16:53;15.10;99.90
18581;DHT22;9420;50.876;7.012;2023-05-24T12:19:29;15.00;99.90
18581;DHT22;9420;50.876;7.012;2023-05-24T12:21:59;14.90;99.90
18581;DHT22;9420;50.876;7.012;2023-05-24T12:24:31;15.30;99.90
18581;DHT22;9420;50.876;7.012;2023-05-24T12:26:59;15.50;99.90
18581;DHT22;9420;50.876;7.012;2023-05-24T12:29:34;15.60;99.90
18581;DHT22;9420;50.876;7.012;2023-05-24T12:32:04;15.60;99.90
18581;DHT22;9420;50.876;7.012;2023-05-24T12:34:39;15.40;99.90
18581;DHT22;9420;50.876;7.012;2023-05-24T12:37:07;15.40;99.90
18581;DHT22;9420;50.876;7.012;2023-05-24T12:39:37;15.40;99.90
18581;DHT22;9420;50.876;7.012;2023-05-24T12:42:06;15.70;99.90
18581;DHT22;9420;50.876;7.012;2023-05-24T12:44:37;16.00;99.90
18581;DHT22;9420;50.876;7.012;2023-05-24T12:47:05;16.30;99.90
18581;DHT22;9420;50.876;7.012;2023-05-24T12:49:33;16.60;99.90
18581;DHT22;9420;50.876;7.012;2023-05-24T12:52:02;16.60;99.90
18581;DHT22;9420;50.876;7.012;2023-05-24T12:54:30;16.90;99.90
18581;DHT22;9420;50.876;7.012;2023-05-24T12:56:59;16.90;99.90
18581;DHT22;9420;50.876;7.012;2023-05-24T12:59:27;17.00;99.90
18581;DHT22;9420;50.876;7.012;2023-05-24T13:01:54;16.90;99.90
18581;DHT22;9420;50.876;7.012;2023-05-24T13:04:22;16.70;99.90
18581;DHT22;9420;50.876;7.012;2023-05-24T13:06:50;16.80;99.90
18581;DHT22;9420;50.876;7.012;2023-05-24T13:09:19;17.00;99.90
18581;DHT22;9420;50.876;7.012;2023-05-24T13:11:47;17.00;99.90
18581;DHT22;9420;50.876;7.012;2023-05-24T13:14:14;17.20;99.90
18581;DHT22;9420;50.876;7.012;2023-05-24T13:16:42;16.90;99.90
18581;DHT22;9420;50.876;7.012;2023-05-24T13:19:10;16.80;99.90
18581;DHT22;9420;50.876;7.012;2023-05-24T13:21:38;16.80;99.90
18581;DHT22;9420;50.876;7.012;2023-05-24T13:24:06;16.80;99.90
18581;DHT22;9420;50.876;7.012;2023-05-24T13:26:34;16.80;99.90
18581;DHT22;9420;50.876;7.012;2023-05-24T13:29:03;16.70;99.90
18581;DHT22;9420;50.876;7.012;2023-05-24T13:31:31;16.90;99.90
18581;DHT22;9420;50.876;7.012;2023-05-24T13:33:58;17.00;99.90
18581;DHT22;9420;50.876;7.012;2023-05-24T13:36:27;17.00;99.90
18581;DHT22;9420;50.876;7.012;2023-05-24T13:38:54;16.70;99.90
18581;DHT22;9420;50.876;7.012;2023-05-24T13:41:22;16.40;99.90
18581;DHT22;9420;50.876;7.012;2023-05-24T13:43:51;16.30;99.90
18581;DHT22;9420;50.876;7.012;2023-05-24T13:46:18;16.40;99.90
18581;DHT22;9420;50.876;7.012;2023-05-24T13:48:48;16.50;99.90
18581;DHT22;9420;50.876;7.012;2023-05-24T13:51:16;16.60;99.90
18581;DHT22;9420;50.876;7.012;2023-05-24T13:53:44;16.40;99.90
18581;DHT22;9420;50.876;7.012;2023-05-24T13:56:12;16.30;99.90
18581;DHT22;9420;50.876;7.012;2023-05-24T13:58:40;16.00;99.90
18581;DHT22;9420;50.876;7.012;2023-05-24T14:01:08;16.00;99.90
18581;DHT22;9420;50.876;7.012;2023-05-24T14:03:36;15.90;99.90
18581;DHT22;9420;50.876;7.012;2023-05-24T14:06:04;15.70;99.90
18581;DHT22;9420;50.876;7.012;2023-05-24T14:08:32;15.70;99.90
18581;DHT22;9420;50.876;7.012;2023-05-24T14:10:59;15.60;99.90
18581;DHT22;9420;50.876;7.012;2023-05-24T14:13:26;15.60;99.90
18581;DHT22;9420;50.876;7.012;2023-05-24T14:15:53;15.50;99.90
18581;DHT22;9420;50.876;7.012;2023-05-24T14:18:21;15.70;99.90
18581;DHT22;9420;50.876;7.012;2023-05-24T14:20:49;15.90;99.90
18581;DHT22;9420;50.876;7.012;2023-05-24T14:23:16;16.00;99.90
18581;DHT22;9420;50.876;7.012;2023-05-24T14:25:42;16.20;99.90
18581;DHT22;9420;50.876;7.012;2023-05-24T14:28:11;16.50;99.90
18581;DHT22;9420;50.876;7.012;2023-05-24T14:30:38;17.00;99.90
18581;DHT22;9420;50.876;7.012;2023-05-24T14:33:06;17.50;99.90
18581;DHT22;9420;50.876;7.012;2023-05-24T14:35:37;17.80;99.90
18581;DHT22;9420;50.876;7.012;2023-05-24T14:38:04;18.10;99.90
18581;DHT22;9420;50.876;7.012;2023-05-24T14:40:31;18.70;99.90
18581;DHT22;9420;50.876;7.012;2023-05-24T14:43:01;19.40;99.90
18581;DHT22;9420;50.876;7.012;2023-05-24T14:45:28;19.40;99.90
18581;DHT22;9420;50.876;7.012;2023-05-24T14:47:55;19.10;99.90
18581;DHT22;9420;50.876;7.012;2023-05-24T14:50:23;19.60;99.90
18581;DHT22;9420;50.876;7.012;2023-05-24T14:52:51;19.90;99.90
18581;DHT22;9420;50.876;7.012;2023-05-24T14:55:18;20.00;97.10
18581;DHT22;9420;50.876;7.012;2023-05-24T14:57:45;19.60;78.70
18581;DHT22;9420;50.876;7.012;2023-05-24T15:00:14;19.90;67.00
18581;DHT22;9420;50.876;7.012;2023-05-24T15:02:42;19.80;68.90
18581;DHT22;9420;50.876;7.012;2023-05-24T15:05:09;19.60;70.10
18581;DHT22;9420;50.876;7.012;2023-05-24T15:07:36;19.20;80.60
18581;DHT22;9420;50.876;7.012;2023-05-24T15:10:05;18.90;42.60
18581;DHT22;9420;50.876;7.012;2023-05-24T15:12:32;19.00;39.10
18581;DHT22;9420;50.876;7.012;2023-05-24T15:14:59;20.10;70.10
18581;DHT22;9420;50.876;7.012;2023-05-24T15:17:26;20.20;35.70
18581;DHT22;9420;50.876;7.012;2023-05-24T15:19:53;19.40;27.00
18581;DHT22;9420;50.876;7.012;2023-05-24T15:22:22;18.80;30.10
18581;DHT22;9420;50.876;7.012;2023-05-24T15:24:49;18.40;24.40
18581;DHT22;9420;50.876;7.012;2023-05-24T15:27:17;18.00;23.80
18581;DHT22;9420;50.876;7.012;2023-05-24T15:29:44;17.90;37.20
18581;DHT22;9420;50.876;7.012;2023-05-24T15:32:11;17.80;91.50
18581;DHT22;9420;50.876;7.012;2023-05-24T15:34:38;18.00;72.80
18581;DHT22;9420;50.876;7.012;2023-05-24T15:37:05;18.10;71.40
18581;DHT22;9420;50.876;7.012;2023-05-24T15:39:32;18.10;42.90
18581;DHT22;9420;50.876;7.012;2023-05-24T15:41:59;18.00;53.20
18581;DHT22;9420;50.876;7.012;2023-05-24T15:44:28;18.00;38.20
18581;DHT22;9420;50.876;7.012;2023-05-24T15:46:56;17.60;56.50
18581;DHT22;9420;50.876;7.012;2023-05-24T15:49:22;17.40;67.80
18581;DHT22;9420;50.876;7.012;2023-05-24T15:51:50;17.20;74.40
18581;DHT22;9420;50.876;7.012;2023-05-24T15:54:17;17.10;69.40
18581;DHT22;9420;50.876;7.012;2023-05-24T15:56:43;17.00;43.30
18581;DHT22;9420;50.876;7.012;2023-05-24T15:59:11;17.00;53.90
18581;DHT22;9420;50.876;7.012;2023-05-24T16:01:39;16.90;74.30
18581;DHT22;9420;50.876;7.012;2023-05-24T16:04:06;16.80;73.60